Time;durP1;ratioP1;P1;durP2;ratioP2;P2;SDS_P1;SDS_P2;PMS_P1;PMS_P2;Temp;Humidity;BMP_temperature;BMP_pressure;BME280_temperature;BME280_humidity;BME280_pressure;Samples;Min_cycle;Max_cycle;Signal;HPM_P1;HPM_P2
2020/12/29 00:01:48;;;;;;;5.85;2.88;;;;;;;5.45;80.30;94077.44;5089295;28;20038;-68
2020/12/29 00:04:16;;;;;;;7.35;3.72;;;;;;;5.44;80.57;94072.50;5084975;28;20032;-68
2020/12/29 00:06:49;;;;;;;4.53;3.00;;;;;;;5.48;80.17;94069.28;5086747;28;20038;-68
2020/12/29 00:09:17;;;;;;;6.60;2.45;;;;;;;5.57;79.97;94092.22;5087369;28;20082;-68
2020/12/29 00:11:44;;;;;;;6.88;3.50;;;;;;;5.59;79.72;94100.56;5088414;28;20429;-69
2020/12/29 00:14:11;;;;;;;5.20;3.05;;;;;;;5.65;79.32;94107.41;5090182;28;20089;-69
2020/12/29 00:16:38;;;;;;;5.03;2.72;;;;;;;5.68;78.83;94109.56;5088459;28;20507;-69
2020/12/29 00:19:10;;;;;;;7.03;3.60;;;;;;;5.79;78.80;94106.25;5089547;28;20117;-68
2020/12/29 00:21:41;;;;;;;7.03;2.65;;;;;;;5.80;78.69;94128.50;5087010;28;20513;-69
2020/12/29 00:24:11;;;;;;;3.80;2.25;;;;;;;5.94;78.17;94139.44;5089528;28;20047;-69
2020/12/29 00:26:57;;;;;;;4.75;2.83;;;;;;;5.90;78.34;94141.69;5087027;28;20036;-69
2020/12/29 00:29:24;;;;;;;6.50;2.70;;;;;;;5.92;78.14;94121.59;5088208;28;20044;-69
2020/12/29 00:31:50;;;;;;;6.63;2.83;;;;;;;6.09;76.99;94121.00;5088556;28;20234;-69
2020/12/29 00:34:16;;;;;;;3.65;2.40;;;;;;;6.03;77.58;94142.56;5087412;28;20035;-69
2020/12/29 00:36:42;;;;;;;5.40;3.40;;;;;;;6.13;77.25;94127.31;5088009;28;20456;-69
2020/12/29 00:39:09;;;;;;;3.58;2.05;;;;;;;6.21;76.35;94114.09;5089440;28;20040;-69
2020/12/29 00:41:35;;;;;;;3.47;2.15;;;;;;;6.19;76.26;94099.78;5087908;28;20093;-69
2020/12/29 00:44:02;;;;;;;4.72;2.45;;;;;;;6.30;75.60;94112.75;5088707;28;20055;-68
2020/12/29 00:46:28;;;;;;;3.05;2.28;;;;;;;6.31;75.28;94114.31;5089343;28;20561;-68
2020/12/29 00:48:55;;;;;;;3.67;2.00;;;;;;;6.40;74.90;94107.03;5088929;28;20044;-69
2020/12/29 00:51:22;;;;;;;3.65;1.90;;;;;;;6.34;75.09;94112.28;5088890;28;20052;-68
2020/12/29 00:53:57;;;;;;;3.03;2.00;;;;;;;6.53;74.29;94125.94;5087690;28;20067;-69
2020/12/29 00:56:23;;;;;;;4.13;2.17;;;;;;;6.54;74.19;94092.09;5087633;28;20051;-69
2020/12/29 00:58:54;;;;;;;2.83;1.90;;;;;;;6.45;74.43;94083.09;5087877;28;20066;-69
2020/12/29 01:01:24;;;;;;;4.45;2.38;;;;;;;6.57;74.06;94086.50;5087866;28;20046;-68
2020/12/29 01:04:10;;;;;;;5.25;1.95;;;;;;;6.58;73.98;94067.34;5076197;28;20175;-69
2020/12/29 01:06:39;;;;;;;3.33;2.25;;;;;;;6.56;73.70;94053.84;5087249;28;20036;-69
2020/12/29 01:09:13;;;;;;;3.00;2.00;;;;;;;6.62;73.63;94068.47;5086688;28;20044;-68
2020/12/29 01:11:39;;;;;;;3.70;2.25;;;;;;;6.74;73.30;94065.91;5086159;28;20050;-68
2020/12/29 01:14:06;;;;;;;4.07;1.80;;;;;;;6.75;73.08;94087.38;5087615;28;20047;-68
2020/12/29 01:16:45;;;;;;;2.40;1.45;;;;;;;6.86;71.47;94074.44;5087616;28;20071;-68
2020/12/29 01:19:13;;;;;;;2.22;1.75;;;;;;;6.80;72.09;94043.50;5087565;28;20089;-69
2020/12/29 01:21:39;;;;;;;2.95;2.10;;;;;;;6.68;72.53;94021.00;5088489;28;20080;-69
2020/12/29 01:24:05;;;;;;;3.00;1.70;;;;;;;6.69;72.79;94025.16;5087036;28;20052;-69
2020/12/29 01:26:32;;;;;;;4.53;2.03;;;;;;;6.70;72.90;93972.41;5088031;28;20059;-69
2020/12/29 01:28:58;;;;;;;2.53;1.77;;;;;;;7.03;69.85;93996.88;5086955;28;20051;-68
2020/12/29 01:31:29;;;;;;;3.28;1.73;;;;;;;6.73;72.48;94020.31;5088743;28;20409;-68
2020/12/29 01:33:57;;;;;;;2.70;1.73;;;;;;;6.68;72.20;94015.84;5087975;28;20039;-68
2020/12/29 01:36:24;;;;;;;4.40;2.30;;;;;;;6.74;72.00;94039.22;5087938;28;20059;-68
2020/12/29 01:38:50;;;;;;;5.50;2.50;;;;;;;6.45;73.35;94026.19;5088096;28;20394;-68
2020/12/29 01:41:21;;;;;;;3.00;1.65;;;;;;;6.57;72.76;94019.22;5088205;28;20093;-68
2020/12/29 01:43:49;;;;;;;2.78;1.50;;;;;;;6.47;73.74;94039.69;5088245;28;20047;-68
2020/12/29 01:46:15;;;;;;;2.50;1.67;;;;;;;6.54;73.18;94060.28;5086765;28;20036;-68
2020/12/29 01:48:42;;;;;;;5.32;1.75;;;;;;;6.45;73.85;94067.56;5087925;28;20446;-69
2020/12/29 01:51:09;;;;;;;3.00;1.60;;;;;;;6.30;73.84;94055.06;5087893;28;20036;-68
2020/12/29 01:53:39;;;;;;;2.88;1.60;;;;;;;6.20;74.84;94055.59;5087322;28;20047;-68
2020/12/29 01:56:10;;;;;;;3.90;2.33;;;;;;;6.03;75.97;94075.34;5086137;28;20410;-68
2020/12/29 01:58:44;;;;;;;4.15;2.80;;;;;;;5.94;76.16;94078.22;5087152;28;20115;-69
2020/12/29 02:01:11;;;;;;;4.05;2.28;;;;;;;5.90;76.76;94082.25;5086223;28;20044;-69
2020/12/29 02:03:38;;;;;;;3.30;1.60;;;;;;;5.82;76.58;94055.94;5086574;28;20067;-69
2020/12/29 02:06:04;;;;;;;1.67;1.15;;;;;;;6.13;75.15;94085.94;5086742;28;20058;-69
2020/12/29 02:08:32;;;;;;;2.90;1.30;;;;;;;6.28;73.82;94083.75;5087156;28;20043;-69
2020/12/29 02:10:59;;;;;;;2.83;1.55;;;;;;;6.48;73.07;94041.25;5086845;28;20050;-69
2020/12/29 02:13:25;;;;;;;4.05;1.10;;;;;;;6.72;71.57;94062.75;5087260;28;20040;-69
2020/12/29 02:15:52;;;;;;;2.30;1.63;;;;;;;6.67;71.28;94086.69;5086848;28;20044;-68
2020/12/29 02:18:18;;;;;;;2.72;1.40;;;;;;;6.74;71.04;94040.00;5086741;28;20467;-68
2020/12/29 02:20:45;;;;;;;5.05;1.30;;;;;;;6.57;72.33;94045.09;5087246;28;20055;-68
2020/12/29 02:23:11;;;;;;;2.15;1.38;;;;;;;6.65;71.80;94047.31;5087015;28;20062;-68
2020/12/29 02:25:38;;;;;;;2.22;1.42;;;;;;;6.28;74.04;94050.13;5085752;28;20054;-68
2020/12/29 02:28:05;;;;;;;8.68;2.00;;;;;;;6.40;73.90;94059.69;5085424;28;20048;-69
2020/12/29 02:30:32;;;;;;;2.35;1.45;;;;;;;6.44;73.11;94066.75;5085445;28;20540;-69
2020/12/29 02:32:59;;;;;;;5.68;2.17;;;;;;;6.41;73.70;94087.13;5085893;28;20055;-69
2020/12/29 02:35:25;;;;;;;2.67;1.45;;;;;;;6.02;76.24;94094.47;5086809;28;20032;-68
2020/12/29 02:37:52;;;;;;;2.58;1.08;;;;;;;6.06;76.35;94113.69;5086738;28;20040;-68
2020/12/29 02:40:18;;;;;;;4.90;1.58;;;;;;;6.00;76.60;94102.44;5086768;28;20047;-68
2020/12/29 02:42:44;;;;;;;2.15;1.27;;;;;;;5.87;76.49;94067.19;5086833;28;20478;-69
2020/12/29 02:45:10;;;;;;;2.60;1.25;;;;;;;5.96;76.57;94105.66;5086189;28;20409;-68
2020/12/29 02:47:37;;;;;;;2.85;1.55;;;;;;;5.99;76.25;94094.91;5086382;28;20039;-68
2020/12/29 02:50:06;;;;;;;1.25;1.00;;;;;;;5.88;77.08;94071.34;5086500;28;20044;-68
2020/12/29 02:52:34;;;;;;;1.83;1.05;;;;;;;6.00;77.43;94078.38;5086651;28;20040;-69
2020/12/29 02:55:00;;;;;;;2.70;1.17;;;;;;;6.04;76.90;94097.63;5085345;28;20058;-69
2020/12/29 02:57:27;;;;;;;2.65;1.20;;;;;;;6.12;76.62;94105.84;5086282;28;20048;-69
2020/12/29 02:59:53;;;;;;;2.33;1.40;;;;;;;6.17;75.96;94107.75;5085534;28;20044;-68
2020/12/29 03:02:19;;;;;;;3.42;1.20;;;;;;;6.15;76.30;94071.00;5086784;28;20047;-68
2020/12/29 03:04:45;;;;;;;2.53;1.30;;;;;;;6.07;76.24;94092.00;5086366;28;20040;-69
2020/12/29 03:07:13;;;;;;;3.22;0.75;;;;;;;6.16;76.57;94067.41;5091726;28;20051;-69
2020/12/29 03:09:40;;;;;;;4.65;1.33;;;;;;;6.41;74.38;94062.06;5092408;28;20119;-69
2020/12/29 03:12:07;;;;;;;3.28;0.90;;;;;;;6.44;73.53;94055.63;5091996;28;20119;-69
2020/12/29 03:14:34;;;;;;;1.38;0.95;;;;;;;6.44;74.36;94112.53;5091966;28;20497;-69
2020/12/29 03:17:01;;;;;;;2.67;1.10;;;;;;;6.29;75.18;94106.00;5092116;28;20036;-68
2020/12/29 03:19:27;;;;;;;1.52;1.15;;;;;;;5.93;76.66;94138.66;5093203;28;20085;-68
2020/12/29 03:21:54;;;;;;;2.13;1.02;;;;;;;5.99;76.64;94136.25;5092988;28;20043;-68
2020/12/29 03:24:20;;;;;;;2.42;1.33;;;;;;;5.88;77.01;94125.59;5092908;28;20501;-69
2020/12/29 03:26:46;;;;;;;3.15;1.70;;;;;;;5.84;77.49;94093.47;5090405;28;20406;-68
2020/12/29 03:29:12;;;;;;;3.75;1.20;;;;;;;5.68;77.91;94110.34;5089847;28;20464;-69
2020/12/29 03:31:43;;;;;;;5.97;1.73;;;;;;;5.97;77.07;94143.44;5092812;28;20044;-68
2020/12/29 03:34:23;;;;;;;1.38;0.95;;;;;;;5.77;77.79;94144.44;5091735;28;20059;-68
2020/12/29 03:36:50;;;;;;;3.15;1.42;;;;;;;5.70;78.22;94138.56;5092066;28;20051;-68
2020/12/29 03:39:17;;;;;;;2.28;1.33;;;;;;;5.71;78.12;94164.19;5091438;28;20044;-69
2020/12/29 03:41:43;;;;;;;3.60;1.65;;;;;;;5.72;77.59;94167.56;5091666;28;20747;-68
2020/12/29 03:44:11;;;;;;;3.17;1.15;;;;;;;5.80;77.42;94175.03;5091413;28;20485;-68
2020/12/29 03:46:37;;;;;;;4.15;2.13;;;;;;;5.98;76.68;94160.50;5091531;28;20049;-69
2020/12/29 03:49:04;;;;;;;4.18;1.00;;;;;;;5.86;77.34;94117.28;5092583;28;20047;-68
2020/12/29 03:51:30;;;;;;;4.38;1.30;;;;;;;5.83;77.17;94192.66;5091294;28;20032;-69
2020/12/29 03:53:56;;;;;;;3.75;2.22;;;;;;;6.06;75.91;94178.31;5090524;28;20044;-68
2020/12/29 03:56:23;;;;;;;2.08;1.58;;;;;;;6.02;75.94;94161.69;5073909;28;20422;-68
2020/12/29 03:58:49;;;;;;;3.83;1.35;;;;;;;6.05;75.88;94167.19;5091421;28;20039;-68
2020/12/29 04:01:15;;;;;;;2.88;1.63;;;;;;;6.26;74.29;94184.00;5092773;28;20028;-68
2020/12/29 04:03:43;;;;;;;6.13;2.45;;;;;;;6.45;73.68;94173.63;5091406;28;20035;-68
2020/12/29 04:06:12;;;;;;;3.85;1.45;;;;;;;6.18;74.49;94153.31;5092923;28;20051;-69
2020/12/29 04:08:39;;;;;;;19.58;9.13;;;;;;;6.41;72.89;94172.47;5091309;28;20239;-68
2020/12/29 04:11:05;;;;;;;32.72;16.63;;;;;;;6.45;72.88;94183.97;5092360;28;20040;-69
2020/12/29 04:13:45;;;;;;;58.75;31.08;;;;;;;6.39;73.17;94177.09;5092378;28;20040;-68
2020/12/29 04:16:12;;;;;;;6.03;2.30;;;;;;;6.04;74.89;94181.13;5092537;28;20497;-68
2020/12/29 04:18:38;;;;;;;2.17;1.20;;;;;;;6.05;74.73;94156.03;5087758;28;20051;-68
2020/12/29 04:21:05;;;;;;;3.63;1.48;;;;;;;5.97;74.71;94153.78;5089273;28;20032;-68
2020/12/29 04:23:32;;;;;;;2.53;1.27;;;;;;;6.02;75.13;94167.63;5088900;28;20113;-69
2020/12/29 04:25:58;;;;;;;11.00;5.20;;;;;;;6.05;74.71;94176.72;5089026;28;20512;-68
2020/12/29 04:28:25;;;;;;;4.78;3.08;;;;;;;6.13;74.39;94148.00;5088350;28;20032;-69
2020/12/29 04:30:53;;;;;;;4.30;1.90;;;;;;;6.08;74.14;94176.31;5087501;28;20048;-69
2020/12/29 04:33:20;;;;;;;7.40;3.47;;;;;;;6.09;74.31;94193.41;5089111;28;20049;-68
2020/12/29 04:35:46;;;;;;;6.30;3.22;;;;;;;6.29;73.72;94178.41;5087880;28;20036;-69
2020/12/29 04:38:12;;;;;;;6.72;2.47;;;;;;;6.29;73.58;94173.22;5087715;28;20495;-69
2020/12/29 04:40:38;;;;;;;7.07;2.38;;;;;;;6.39;72.04;94210.72;5087831;28;20070;-69
2020/12/29 04:43:05;;;;;;;4.30;2.30;;;;;;;6.35;71.41;94170.78;5087980;28;20036;-69
2020/12/29 04:45:31;;;;;;;2.30;1.63;;;;;;;6.43;71.85;94180.84;5087337;28;20040;-69
2020/12/29 04:47:58;;;;;;;7.35;5.03;;;;;;;6.47;71.97;94210.41;5087712;28;20044;-68
2020/12/29 04:50:26;;;;;;;3.70;2.70;;;;;;;6.27;72.54;94206.28;5087559;28;20458;-69
2020/12/29 04:52:56;;;;;;;8.43;3.53;;;;;;;7.29;63.17;94194.22;5088290;28;20029;-69
2020/12/29 04:55:30;;;;;;;5.85;1.40;;;;;;;8.98;56.38;94183.66;5088891;28;20048;-69
2020/12/29 04:57:59;;;;;;;3.75;2.28;;;;;;;9.49;53.88;94170.59;5087774;28;20505;-68
2020/12/29 05:00:26;;;;;;;3.35;1.27;;;;;;;8.94;61.23;94206.72;5087591;28;20042;-68
2020/12/29 05:02:53;;;;;;;2.45;1.30;;;;;;;8.07;63.86;94187.00;5088443;28;20036;-69
2020/12/29 05:05:22;;;;;;;10.20;1.55;;;;;;;7.63;67.23;94187.44;5088568;28;20058;-69
2020/12/29 05:07:49;;;;;;;3.30;1.85;;;;;;;7.27;69.20;94206.59;5088526;28;20040;-68
2020/12/29 05:10:16;;;;;;;1.65;1.10;;;;;;;7.32;63.79;94174.84;5087534;28;20119;-69
2020/12/29 05:12:51;;;;;;;3.80;2.40;;;;;;;9.19;54.83;94182.16;5086999;28;20028;-69
2020/12/29 05:15:21;;;;;;;3.78;1.40;;;;;;;8.85;60.81;94187.34;5087456;28;20055;-67
2020/12/29 05:17:48;;;;;;;2.72;1.38;;;;;;;8.08;64.15;94162.63;5085121;28;20052;-67
2020/12/29 05:20:21;;;;;;;5.78;1.30;;;;;;;8.49;58.83;94163.38;5070188;28;20042;-68
2020/12/29 05:22:48;;;;;;;8.75;1.85;;;;;;;9.30;53.99;94142.28;5086743;28;20508;-67
2020/12/29 05:25:17;;;;;;;2.38;1.25;;;;;;;9.85;52.82;94164.06;5087990;28;20070;-67
2020/12/29 05:27:44;;;;;;;15.23;1.35;;;;;;;10.72;49.08;94156.38;5086725;28;20070;-67
2020/12/29 05:30:11;;;;;;;5.32;0.80;;;;;;;10.93;48.74;94152.13;5084749;28;20044;-67
2020/12/29 05:32:38;;;;;;;2.70;1.70;;;;;;;11.07;48.31;94157.66;5086953;28;20032;-67
2020/12/29 05:35:14;;;;;;;5.68;1.48;;;;;;;11.15;48.29;94144.19;5085739;28;20433;-67
2020/12/29 05:37:41;;;;;;;3.15;0.95;;;;;;;11.36;47.44;94139.09;5086877;28;20463;-68
2020/12/29 05:40:25;;;;;;;4.45;0.47;;;;;;;11.43;46.86;94147.47;5087708;28;20036;-67
2020/12/29 05:42:54;;;;;;;7.95;1.63;;;;;;;11.53;46.72;94154.56;5087893;28;20032;-67
2020/12/29 05:45:23;;;;;;;1.55;0.80;;;;;;;11.50;47.26;94150.63;5086767;28;20052;-67
2020/12/29 05:47:56;;;;;;;2.50;0.52;;;;;;;11.40;47.62;94140.16;5086428;28;20052;-67
2020/12/29 05:50:23;;;;;;;1.97;0.50;;;;;;;11.43;47.33;94144.84;5086532;28;20481;-67
2020/12/29 05:52:57;;;;;;;2.42;0.32;;;;;;;11.45;47.64;94161.03;5085884;28;20485;-67
2020/12/29 05:55:24;;;;;;;0.65;0.20;;;;;;;11.35;47.47;94163.59;5087094;28;20051;-68
2020/12/29 05:58:18;;;;;;;1.58;0.40;;;;;;;11.58;46.90;94172.88;5087388;28;20039;-66
2020/12/29 06:00:45;;;;;;;7.13;3.47;;;;;;;11.56;47.52;94157.47;5083647;28;20040;-67
2020/12/29 06:03:11;;;;;;;4.25;2.75;;;;;;;11.48;47.73;94152.72;5087495;28;20041;-67
2020/12/29 06:05:39;;;;;;;2.67;0.60;;;;;;;11.42;47.31;94191.00;5087500;28;20036;-67
2020/12/29 06:08:07;;;;;;;3.83;0.63;;;;;;;11.67;46.57;94182.56;5086149;28;20536;-67
2020/12/29 06:10:35;;;;;;;1.88;1.33;;;;;;;11.61;47.02;94204.44;5085901;28;20444;-67
2020/12/29 06:13:06;;;;;;;2.80;0.85;;;;;;;11.48;47.28;94208.25;5087031;28;20047;-67
2020/12/29 06:15:35;;;;;;;2.30;0.63;;;;;;;11.49;47.34;94196.03;5085924;28;20044;-67
2020/12/29 06:18:04;;;;;;;2.08;0.80;;;;;;;11.63;46.92;94210.19;5085962;28;20120;-67
2020/12/29 06:20:52;;;;;;;6.38;1.73;;;;;;;11.70;46.46;94219.59;5085204;28;20503;-67
2020/12/29 06:23:19;;;;;;;2.72;0.95;;;;;;;11.62;46.86;94210.44;5085732;28;20038;-67
2020/12/29 06:25:46;;;;;;;4.93;1.42;;;;;;;11.17;48.72;94209.09;5087124;28;20486;-67
2020/12/29 06:28:19;;;;;;;1.50;0.80;;;;;;;11.41;48.19;94199.09;5084773;28;20044;-67
2020/12/29 06:30:45;;;;;;;4.45;0.98;;;;;;;11.70;47.09;94206.56;5101491;28;20076;-66
2020/12/29 06:33:17;;;;;;;2.25;1.15;;;;;;;11.75;46.74;94198.75;5085735;28;20036;-66
2020/12/29 06:35:45;;;;;;;2.17;0.95;;;;;;;11.72;46.55;94212.31;5087133;28;20122;-67
2020/12/29 06:38:28;;;;;;;7.60;1.70;;;;;;;11.79;46.94;94194.59;5087177;28;20120;-66
2020/12/29 06:40:54;;;;;;;2.53;0.65;;;;;;;11.75;46.96;94215.19;5084974;28;20044;-67
2020/12/29 06:43:28;;;;;;;1.65;0.60;;;;;;;11.84;46.42;94203.22;5085450;28;20124;-67
2020/12/29 06:46:11;;;;;;;5.53;0.63;;;;;;;11.84;46.51;94194.63;5086837;28;20047;-66
2020/12/29 06:48:37;;;;;;;1.55;0.40;;;;;;;11.92;46.47;94209.84;5085795;28;20044;-66
2020/12/29 06:51:14;;;;;;;1.40;0.35;;;;;;;11.98;45.28;94226.31;5086876;28;20036;-67
2020/12/29 06:53:41;;;;;;;1.75;0.57;;;;;;;12.10;44.81;94220.88;5085702;28;20513;-67
2020/12/29 06:56:16;;;;;;;2.83;0.65;;;;;;;12.21;44.68;94204.22;5086472;28;20580;-67
2020/12/29 06:58:42;;;;;;;;;;;;;;;12.34;44.42;94227.22;5085003;28;20157;-66
2020/12/29 07:01:26;;;;;;;2.08;1.13;;;;;;;12.33;44.79;94225.66;5085314;28;20274;-66
2020/12/29 07:04:07;;;;;;;0.57;0.10;;;;;;;12.36;44.19;94214.69;5084643;28;20510;-66
2020/12/29 07:06:36;;;;;;;2.15;0.60;;;;;;;12.38;44.45;94223.06;5085538;28;21843;-66
2020/12/29 07:09:15;;;;;;;2.97;0.47;;;;;;;12.45;44.14;94222.06;5085559;28;20532;-66
2020/12/29 07:12:05;;;;;;;1.40;0.45;;;;;;;12.53;44.62;94245.03;5085538;28;20417;-66
2020/12/29 07:14:33;;;;;;;1.13;0.50;;;;;;;12.55;44.18;94237.72;5085210;28;20164;-67
2020/12/29 07:17:00;;;;;;;1.58;0.43;;;;;;;12.67;43.77;94230.44;5086073;28;20051;-66
2020/12/29 07:19:28;;;;;;;2.88;0.60;;;;;;;12.75;42.89;94232.56;5085233;28;20124;-66
2020/12/29 07:21:54;;;;;;;1.35;0.60;;;;;;;12.85;42.48;94251.91;5085368;28;20089;-66
2020/12/29 07:24:21;;;;;;;1.58;0.73;;;;;;;12.80;43.62;94263.94;5086329;28;20055;-66
2020/12/29 07:26:56;;;;;;;2.42;0.80;;;;;;;12.85;43.77;94283.28;5084748;28;20481;-66
2020/12/29 07:29:23;;;;;;;3.90;0.77;;;;;;;12.86;42.82;94279.63;5084552;28;20047;-67
2020/12/29 07:31:50;;;;;;;2.67;0.75;;;;;;;12.87;43.32;94265.50;5086291;28;20043;-67
2020/12/29 07:34:16;;;;;;;4.07;1.10;;;;;;;12.98;44.11;94264.47;5085818;28;20040;-67
2020/12/29 07:36:46;;;;;;;3.63;0.65;;;;;;;12.97;42.61;94255.09;5086069;28;20111;-67
2020/12/29 07:39:14;;;;;;;3.78;1.85;;;;;;;12.96;43.11;94236.00;5085532;28;20474;-66
2020/12/29 07:41:41;;;;;;;7.55;1.85;;;;;;;13.02;42.97;94262.94;5085021;28;20036;-66
2020/12/29 07:44:08;;;;;;;2.03;0.30;;;;;;;13.17;41.14;94257.72;5086065;28;20036;-66
2020/12/29 07:46:35;;;;;;;3.60;0.70;;;;;;;13.19;41.86;94247.75;5083712;28;20047;-66
2020/12/29 07:49:04;;;;;;;1.55;0.45;;;;;;;13.27;42.55;94253.53;5085492;28;20051;-67
2020/12/29 07:51:30;;;;;;;2.20;0.60;;;;;;;13.37;41.44;94264.03;5085588;28;20039;-66
2020/12/29 07:54:04;;;;;;;14.50;1.08;;;;;;;13.36;41.54;94259.81;5088165;28;20693;-66
2020/12/29 07:56:31;;;;;;;;;;;;;;;13.38;41.02;94302.22;5089379;28;20101;-66
2020/12/29 07:59:08;;;;;;;4.15;1.38;;;;;;;13.32;43.19;94262.19;5088984;28;19928;-66
2020/12/29 08:01:55;;;;;;;3.13;0.80;;;;;;;13.36;42.15;94293.81;5088572;28;20040;-66
2020/12/29 08:04:32;;;;;;;0.90;0.35;;;;;;;13.40;42.67;94268.75;5087402;28;20052;-67
2020/12/29 08:07:06;;;;;;;2.45;0.70;;;;;;;13.48;41.95;94255.13;5088488;28;20111;-67
2020/12/29 08:09:45;;;;;;;5.40;0.70;;;;;;;13.48;41.48;94320.53;5089583;28;20486;-67
2020/12/29 08:12:16;;;;;;;4.88;0.70;;;;;;;13.53;42.17;94294.38;5088182;28;20028;-67
2020/12/29 08:14:42;;;;;;;2.75;0.47;;;;;;;13.48;42.38;94276.03;5088553;28;21011;-68
2020/12/29 08:17:09;;;;;;;4.60;2.22;;;;;;;13.50;42.68;94284.41;5089339;28;20093;-67
2020/12/29 08:19:36;;;;;;;6.97;3.47;;;;;;;13.62;43.44;94289.41;5089429;28;20051;-67
2020/12/29 08:22:07;;;;;;;7.07;2.00;;;;;;;13.63;42.12;94288.34;5088506;28;20501;-67
2020/12/29 08:24:33;;;;;;;2.28;1.40;;;;;;;13.73;42.58;94311.09;5089171;28;20050;-67
2020/12/29 08:27:00;;;;;;;2.05;1.15;;;;;;;13.68;42.10;94321.56;5088840;28;20044;-68
2020/12/29 08:29:28;;;;;;;3.00;0.80;;;;;;;13.71;42.57;94310.59;5070000;28;20048;-68
2020/12/29 08:32:08;;;;;;;0.98;0.50;;;;;;;13.88;42.15;94321.56;5088744;28;20036;-68
2020/12/29 08:34:38;;;;;;;1.00;0.40;;;;;;;13.89;41.73;94323.13;5087899;28;20046;-67
2020/12/29 08:37:06;;;;;;;3.40;0.60;;;;;;;13.94;42.58;94325.75;5087877;28;20040;-67
2020/12/29 08:39:50;;;;;;;3.08;0.70;;;;;;;13.94;42.67;94330.97;5088491;28;20046;-68
2020/12/29 08:42:18;;;;;;;4.97;0.75;;;;;;;13.98;41.19;94326.00;5087720;28;20093;-66
2020/12/29 08:44:46;;;;;;;0.82;0.30;;;;;;;13.95;42.11;94302.97;5087869;28;20409;-67
2020/12/29 08:47:14;;;;;;;3.35;1.45;;;;;;;14.03;41.36;94312.13;5088409;28;20035;-67
2020/12/29 08:49:41;;;;;;;0.63;0.30;;;;;;;14.09;41.74;94347.72;5088937;28;20044;-67
2020/12/29 08:52:07;;;;;;;9.05;2.95;;;;;;;14.05;43.22;94320.50;5088459;28;20438;-67
2020/12/29 08:54:36;;;;;;;4.55;1.60;;;;;;;14.14;41.25;94319.69;5089205;28;20036;-67
2020/12/29 08:57:10;;;;;;;2.33;1.05;;;;;;;14.19;42.76;94321.53;5088967;28;20066;-67
2020/12/29 08:59:38;;;;;;;1.05;0.50;;;;;;;14.26;42.01;94326.47;5088856;28;20036;-68
2020/12/29 09:02:06;;;;;;;4.85;2.03;;;;;;;14.26;42.30;94343.00;5089041;28;20058;-67
2020/12/29 09:04:37;;;;;;;3.08;1.40;;;;;;;14.25;41.24;94304.72;5087769;28;20054;-67
2020/12/29 09:07:08;;;;;;;3.33;1.30;;;;;;;14.36;41.91;94315.19;5088895;28;20123;-66
2020/12/29 09:09:55;;;;;;;2.92;1.45;;;;;;;14.34;41.41;94324.09;5087196;28;20039;-67
2020/12/29 09:12:32;;;;;;;4.95;1.70;;;;;;;14.24;42.02;94318.91;5086879;28;20052;-66
2020/12/29 09:15:04;;;;;;;2.50;0.65;;;;;;;14.37;41.93;94321.97;5086515;28;20052;-67
2020/12/29 09:17:32;;;;;;;4.97;1.15;;;;;;;14.38;41.18;94334.81;5088942;28;20044;-68
2020/12/29 09:20:25;;;;;;;1.98;0.80;;;;;;;14.40;42.36;94310.97;5087643;28;20111;-67
2020/12/29 09:23:03;;;;;;;3.92;0.80;;;;;;;14.29;41.93;94342.44;5087244;28;20093;-67
2020/12/29 09:25:45;;;;;;;1.20;0.52;;;;;;;14.29;42.27;94337.19;5088526;28;20047;-68
2020/12/29 09:28:27;;;;;;;1.60;0.60;;;;;;;14.20;42.29;94338.78;5087331;28;20516;-67
2020/12/29 09:31:00;;;;;;;3.60;0.57;;;;;;;14.21;43.54;94329.91;5085669;28;20047;-67
2020/12/29 09:33:28;;;;;;;9.43;0.80;;;;;;;14.11;42.25;94322.81;5087800;28;20040;-68
2020/12/29 09:35:58;;;;;;;0.65;0.43;;;;;;;14.15;41.60;94330.94;5088479;28;20085;-66
2020/12/29 09:38:24;;;;;;;0.88;0.40;;;;;;;14.16;42.11;94332.53;5087232;28;20047;-66
2020/12/29 09:41:00;;;;;;;2.30;1.30;;;;;;;14.22;43.29;94326.22;5086875;28;20526;-67
2020/12/29 09:43:27;;;;;;;2.40;0.52;;;;;;;14.23;40.41;94327.00;5087896;28;20145;-66
2020/12/29 09:45:57;;;;;;;2.55;0.82;;;;;;;14.26;41.20;94337.75;5087291;28;20047;-66
2020/12/29 09:48:24;;;;;;;2.42;1.02;;;;;;;14.58;41.54;94325.34;5086714;28;20032;-66
2020/12/29 09:50:50;;;;;;;1.10;0.50;;;;;;;14.90;40.48;94335.44;5086910;28;20051;-67
2020/12/29 09:53:16;;;;;;;1.73;0.82;;;;;;;15.05;41.02;94326.72;5087386;28;20039;-67
2020/12/29 09:55:43;;;;;;;10.35;5.13;;;;;;;15.03;40.42;94324.34;5085072;28;20044;-68
2020/12/29 09:58:10;;;;;;;4.15;0.73;;;;;;;15.02;41.30;94322.81;5084974;28;20047;-67
2020/12/29 10:00:37;;;;;;;2.88;0.60;;;;;;;14.85;40.19;94332.84;5083411;28;20040;-68
2020/12/29 10:03:04;;;;;;;2.20;0.65;;;;;;;14.85;40.10;94319.75;5085258;28;20145;-67
2020/12/29 10:05:31;;;;;;;1.55;0.80;;;;;;;14.71;41.52;94328.19;5084798;28;20128;-68
2020/12/29 10:07:57;;;;;;;4.63;0.82;;;;;;;14.65;40.66;94307.50;5084715;28;20044;-66
2020/12/29 10:10:24;;;;;;;3.85;0.60;;;;;;;14.74;39.59;94331.34;5086942;28;20123;-67
2020/12/29 10:12:50;;;;;;;2.22;1.08;;;;;;;14.66;40.45;94312.50;5087829;28;20036;-67
2020/12/29 10:15:16;;;;;;;2.58;0.88;;;;;;;14.87;40.26;94335.97;5087518;28;20048;-67
2020/12/29 10:17:43;;;;;;;1.10;0.30;;;;;;;14.98;40.73;94327.03;5087255;28;20040;-68
2020/12/29 10:20:09;;;;;;;4.10;1.50;;;;;;;15.18;41.08;94318.25;5088074;28;20047;-68
2020/12/29 10:22:35;;;;;;;1.10;0.40;;;;;;;15.35;39.78;94335.47;5086551;28;20068;-68
2020/12/29 10:25:02;;;;;;;4.10;1.00;;;;;;;15.53;40.43;94324.31;5086620;28;20051;-68
2020/12/29 10:27:29;;;;;;;1.80;0.77;;;;;;;15.56;39.99;94323.78;5085905;28;20428;-68
2020/12/29 10:29:55;;;;;;;1.35;0.70;;;;;;;15.44;40.05;94313.63;5085110;28;20040;-68
2020/12/29 10:32:22;;;;;;;3.30;0.70;;;;;;;15.38;40.89;94334.94;5087298;28;20662;-67
2020/12/29 10:34:49;;;;;;;2.92;1.60;;;;;;;15.46;40.42;94322.00;5086419;28;20039;-68
2020/12/29 10:37:15;;;;;;;3.85;1.10;;;;;;;15.55;40.44;94318.78;5086437;28;20044;-69
2020/12/29 10:39:43;;;;;;;5.50;1.13;;;;;;;15.51;40.63;94309.91;5087608;28;20477;-67
2020/12/29 10:42:10;;;;;;;3.05;1.60;;;;;;;15.61;39.87;94313.25;5087444;28;20059;-67
2020/12/29 10:44:36;;;;;;;5.63;3.47;;;;;;;15.42;39.88;94315.72;5085748;28;20044;-70
2020/12/29 10:47:03;;;;;;;3.05;1.30;;;;;;;15.32;38.96;94328.91;5086471;28;20466;-67
2020/12/29 10:49:29;;;;;;;4.25;1.65;;;;;;;15.48;40.10;94322.53;5086198;28;20040;-68
2020/12/29 10:51:55;;;;;;;2.55;1.05;;;;;;;15.48;38.54;94326.97;5087128;28;20028;-68
2020/12/29 10:54:24;;;;;;;2.53;1.27;;;;;;;15.67;38.98;94327.09;5087343;28;20482;-69
2020/12/29 10:56:51;;;;;;;2.75;1.00;;;;;;;15.67;38.10;94316.59;5086884;28;20054;-71
2020/12/29 10:59:17;;;;;;;1.77;0.90;;;;;;;15.66;38.33;94338.66;5086944;28;20458;-67
2020/12/29 11:01:44;;;;;;;4.30;0.90;;;;;;;15.48;37.82;94298.09;5087533;28;20097;-68
2020/12/29 11:04:10;;;;;;;3.78;1.75;;;;;;;15.42;38.16;94284.25;5086043;28;20040;-68
2020/12/29 11:06:36;;;;;;;3.45;1.17;;;;;;;15.23;38.62;94292.00;5087091;28;20114;-68
2020/12/29 11:09:03;;;;;;;2.90;1.10;;;;;;;15.48;38.68;94293.66;5087080;28;20048;-68
2020/12/29 11:11:30;;;;;;;3.13;1.00;;;;;;;15.55;37.77;94329.28;5086929;28;20047;-66
2020/12/29 11:13:57;;;;;;;3.72;1.30;;;;;;;15.52;38.15;94304.41;5086729;28;20882;-67
2020/12/29 11:16:23;;;;;;;4.00;1.55;;;;;;;15.62;38.80;94295.63;5087064;28;20123;-68
2020/12/29 11:18:50;;;;;;;4.13;1.17;;;;;;;15.62;38.20;94300.88;5087015;28;20044;-67
2020/12/29 11:21:18;;;;;;;4.68;1.35;;;;;;;15.62;37.24;94298.25;5087261;28;20052;-69
2020/12/29 11:23:45;;;;;;;3.70;0.90;;;;;;;15.56;38.47;94312.50;5087199;28;20029;-68
2020/12/29 11:26:22;;;;;;;2.53;1.17;;;;;;;15.62;37.71;94321.91;5086895;28;20481;-68
2020/12/29 11:28:49;;;;;;;3.33;1.25;;;;;;;15.69;38.03;94298.72;5090449;28;20044;-67
2020/12/29 11:31:17;;;;;;;4.38;1.48;;;;;;;15.54;37.63;94306.72;5087636;28;20044;-67
2020/12/29 11:33:44;;;;;;;7.55;1.90;;;;;;;15.56;38.12;94294.91;5090977;28;20035;-67
2020/12/29 11:36:14;;;;;;;1.83;0.73;;;;;;;15.48;37.65;94313.84;5091104;28;20421;-67
2020/12/29 11:38:40;;;;;;;8.52;1.08;;;;;;;15.48;37.78;94303.34;5090938;28;20036;-67
2020/12/29 11:41:07;;;;;;;6.65;1.65;;;;;;;15.72;37.30;94313.94;5090782;28;22886;-67
2020/12/29 11:43:33;;;;;;;1.58;0.95;;;;;;;15.98;36.49;94311.88;5092194;28;20044;-69
2020/12/29 11:45:59;;;;;;;4.45;1.30;;;;;;;15.83;36.17;94304.16;5089315;28;20048;-66